TABS, Texas Automated Buoy System, NOAA HAZMAT, Ocean Observatory, Real Time Oceanographic Data Supporting Oil Spill Prevention and Response

Texas General Land Office  Texas General
 Land Office
 Oil Spill Prevention
 & Response
Texas Automated Buoy System
Real Time Ocean Observations
Supporting Oil Spill Prevention and Response since 1995
Geochemical and Environmental Research Group

TABS Buoy J -- Texas Automated Buoy System

TABS Buoy J Conditions at 09/01/2014 22:30 UTC (09/01/2014 17:30 CDT)
26° 11.4840'N   97° 3.0420'W
AA3900 DCS - sensor depth 2m
Anemometer height: 4m
Water Depth: 68 feet (20 meters)
Speed: 7.78 cm/s (0.15 kts) Direction: 117 °T (ESE) Water Temp: 28°C (83 °F)
System Voltage: 12.9 V Signal Strength: -2.2 dB Ping Count: 133
Wind: 5.1 m/s (9.9 kts)
          From 134°T (SE)
Air Temp: 29 °C (83 °F)
Relative Humidity:  N/A
Pressure: 1011.0 mb (29.86 inHg)

  


IMPORTANT: Notice to Mariners


Today's Meteorological Data (download)

   Date   |  Time  |  VEast   North    AirT  AtmPr     Gust   Comp   Tx   Ty    PAR   RelH
          |  (UTC) |  (m/s)|  (m/s)|   (°C)|  (mb) |  (m/s)|  (°M) |    |    |      |  (%) |
==========+========+=======+=======+=======+=======+=======+=======+====+====+======+======+
09/01/2014 00:00:00   -3.79    1.83    28.5 1012.46    5.60   165.5    2    2    0.0 -999.0
09/01/2014 00:30:00   -3.58    1.58    28.3 1012.44    5.03   131.0    3    1    0.0 -999.0
09/01/2014 01:00:00   -4.44    1.92    28.0 1012.44    5.81   127.8    3    1    0.0 -999.0
09/01/2014 01:30:00   -3.37    2.98    28.0 1012.44    5.53   140.1    3    1    0.0 -999.0
09/01/2014 02:00:00   -3.20    2.19    28.0 1012.65    5.01   140.6    3    1    0.0 -999.0
09/01/2014 02:30:00   -3.00    2.73    28.0 1012.85    5.04   141.7    3    1    0.0 -999.0
09/01/2014 03:00:00   -3.96    4.00    28.0 1013.24    6.81   145.7    3    2    0.0 -999.0
09/01/2014 03:30:00   -3.62    4.16    27.9 1013.35    6.85   146.8    3    2    0.0 -999.0
09/01/2014 04:00:00   -3.32    4.17    28.0 1013.33    6.93   167.9    3    2    0.0 -999.0
09/01/2014 04:30:00   -3.21    4.39    27.9 1012.88    6.92   170.1    3    2    0.0 -999.0
09/01/2014 05:00:00   -3.39    4.64    27.8 1012.86    7.03   170.3    3    2    0.0 -999.0
09/01/2014 05:30:00   -3.20    4.53    27.9 1012.87    7.32   168.2    3    2    0.0 -999.0
09/01/2014 06:00:00   -2.82    3.97    27.8 1012.99    6.03   169.8    3    2    0.0 -999.0
09/01/2014 06:30:00   -3.18    4.48    27.7 1012.80    6.91   168.6    3    2    0.0 -999.0
09/01/2014 07:00:00   -2.87    4.14    27.6 1012.56    6.81   172.3    3    2    0.0 -999.0
09/01/2014 07:30:00   -2.41    4.35    27.6 1012.12    5.96   158.6    3    2    0.0 -999.0
09/01/2014 08:00:00   -1.91    3.90    27.5 1012.13    5.52   162.3    3    1    0.0 -999.0
09/01/2014 08:30:00   -1.42    3.85    27.5 1011.96    5.04   163.4    3    1    0.0 -999.0
09/01/2014 09:00:00   -1.69    3.63    27.5 1011.81    5.06   157.5    2    1    0.0 -999.0
09/01/2014 09:30:00   -1.90    3.05    27.4 1011.65    4.51   153.9    2    1    0.0 -999.0
09/01/2014 10:00:00   -2.05    2.67    27.4 1011.59    4.30   149.4    3    1    0.0 -999.0
09/01/2014 10:30:00   -1.99    2.62    27.4 1011.54    4.09   144.7    2    1    0.0 -999.0
09/01/2014 11:00:00   -2.43    2.93    27.4 1011.62    4.97   149.9    3    1    0.0 -999.0
09/01/2014 11:30:00   -2.41    2.32    27.4 1011.83    4.22   145.5    2    1    0.0 -999.0
09/01/2014 12:00:00   -2.21    2.47    27.4 1012.00    4.04   148.3    2    1    0.0 -999.0
09/01/2014 12:30:00   -2.35    2.07    27.4 1012.13    4.10   140.7    2    1    0.0 -999.0
09/01/2014 13:00:00   -1.99    1.69    27.8 1012.58    3.49   186.2    2    1    0.0 -999.0
09/01/2014 13:30:00   -1.76    1.65    28.0 1012.76    3.06   177.8    2    1    0.0 -999.0
09/01/2014 14:00:00   -1.73    1.56    28.0 1012.86    3.11   143.2    2    1    0.0 -999.0
09/01/2014 14:30:00   -1.72    1.25    28.0 1012.90    2.70   185.9    2    1    0.0 -999.0
09/01/2014 15:00:00   -2.17    1.48    28.0 1013.06    3.34   176.3    2    1    0.0 -999.0
09/01/2014 15:30:00   -2.50    1.71    28.0 1013.16    3.85   138.8    2    1    0.0 -999.0
09/01/2014 16:00:00   -2.25    1.86    28.0 1013.20    3.72   139.7    2    1    0.0 -999.0
09/01/2014 16:30:00   -2.43    2.34    28.1 1013.19    4.22   140.3    3    1    0.0 -999.0
09/01/2014 17:00:00   -2.23    2.14    28.1 1013.31    4.16   143.7    3    1    0.0 -999.0
09/01/2014 17:30:00   -2.18    2.08    28.1 1013.05    4.11   142.8    3    1    0.0 -999.0
09/01/2014 18:00:00   -2.13    2.02    28.2 1012.92    3.74   144.2    2    1    0.0 -999.0
09/01/2014 18:30:00   -2.96    2.60    28.3 1012.81    4.89   141.7    3    1    0.0 -999.0
09/01/2014 19:00:00   -2.95    2.69    28.3 1012.32    5.25   143.1    3    1    0.0 -999.0
09/01/2014 19:30:00   -3.04    2.99    28.3 1012.11    5.37   145.1    3    1    0.0 -999.0
09/01/2014 20:00:00   -3.04    2.98    28.4 1011.85    5.20   144.7    3    1    0.0 -999.0
09/01/2014 20:30:00   -3.28    2.87    28.4 1011.63    5.48   144.5    3    1    0.0 -999.0
09/01/2014 21:00:00   -3.16    3.22    28.4 1011.43    5.73   146.2    3    2    0.0 -999.0
09/01/2014 21:30:00   -3.17    3.07    28.5 1011.15    5.45   149.3    3    1    0.0 -999.0
09/01/2014 22:00:00   -3.19    3.10    28.6 1010.93    5.88   146.4    3    2    0.0 -999.0
09/01/2014 22:30:00   -3.66    3.56    28.6 1011.02    6.59   148.6    3    2    0.0 -999.0